首页
METAR-TAF:

METAR-TAF

机场 :

Yeovilton, 英格兰

纬度: 51-00N, 经度: 002-38W, 海拔: 23米

当前天气观测

该预报发布于20分钟前的00:50 UTC
风速8节,风向东转东南
温度 8°C
湿度 76%
气压 1010 hPa
能见度10公里或以上
雨, 毛毛雨

METAR: EGDY 080050Z AUTO 12008KT 9999 RADZ BKN031/// SCT038/// BKN060/// 08/04 Q1010

时间: 02:10 (01:10 UTC)

预报

该预报发布于14小时和45分钟前的10:25 UTC
预报有效从07日的 12点(UTC)到 07日的 21点(UTC)
风速5节,风向西
能见度10公里或以上
少量云层高于4000英尺
成为
从 07日的 14点(UTC)到 07日的 16点(UTC)
风速10节,风向南转西南
成为
从 07日的 19点(UTC)到 07日的 21点(UTC)
风速5节,风向东南
散云层高于1800英尺

TAF: EGDY 071025Z 0712/0721 27005KT 9999 FEW040 BECMG 0714/0716 20010KT BECMG 0719/0721 13005KT SCT018

超过4000个机场的气象观测和天气预报(METAR&TAF报告)。

可查询的气象台以黄色和红色小点在地图上表示。

将鼠标移到小点上方,可查看气象台名称。

然后点击查看天气观测和预报。

如需切换地图:点击带黑十字的绿色按钮放大地图;点击带横线的绿色按钮缩小地图;或者点击绿色箭头查看邻近地区的地图。


METAR-TAF: